sensor_id;sensor_type;location;lat;lon;timestamp;P1;durP1;ratioP1;P2;durP2;ratioP2
35243;SDS011;37916;52.160;21.066;2024-01-25T00:04:13;9.18;;;2.47;;
35243;SDS011;37916;52.160;21.066;2024-01-25T00:14:14;7.35;;;1.20;;
35243;SDS011;37916;52.160;21.066;2024-01-25T00:24:15;3.92;;;1.08;;
35243;SDS011;37916;52.160;21.066;2024-01-25T00:34:16;5.35;;;0.95;;
35243;SDS011;37916;52.160;21.066;2024-01-25T00:44:17;8.40;;;1.08;;
35243;SDS011;37916;52.160;21.066;2024-01-25T00:54:18;5.10;;;1.73;;
35243;SDS011;37916;52.160;21.066;2024-01-25T01:14:23;7.38;;;1.52;;
35243;SDS011;37916;52.160;21.066;2024-01-25T01:24:24;9.43;;;1.85;;
35243;SDS011;37916;52.160;21.066;2024-01-25T01:34:25;10.90;;;1.90;;
35243;SDS011;37916;52.160;21.066;2024-01-25T01:44:26;12.27;;;2.40;;
35243;SDS011;37916;52.160;21.066;2024-01-25T01:54:27;16.92;;;1.95;;
35243;SDS011;37916;52.160;21.066;2024-01-25T02:04:28;12.85;;;2.28;;
35243;SDS011;37916;52.160;21.066;2024-01-25T02:14:30;7.63;;;1.63;;
35243;SDS011;37916;52.160;21.066;2024-01-25T02:24:31;15.85;;;2.15;;
35243;SDS011;37916;52.160;21.066;2024-01-25T02:34:32;14.15;;;2.42;;
35243;SDS011;37916;52.160;21.066;2024-01-25T02:44:33;10.48;;;2.30;;
35243;SDS011;37916;52.160;21.066;2024-01-25T02:54:35;12.88;;;2.47;;
35243;SDS011;37916;52.160;21.066;2024-01-25T03:04:36;12.50;;;2.42;;
35243;SDS011;37916;52.160;21.066;2024-01-25T03:14:37;15.80;;;2.08;;
35243;SDS011;37916;52.160;21.066;2024-01-25T03:24:38;15.90;;;2.75;;
35243;SDS011;37916;52.160;21.066;2024-01-25T03:34:39;20.35;;;3.50;;
35243;SDS011;37916;52.160;21.066;2024-01-25T03:44:40;32.35;;;11.82;;
35243;SDS011;37916;52.160;21.066;2024-01-25T03:54:42;20.15;;;6.95;;
35243;SDS011;37916;52.160;21.066;2024-01-25T04:04:43;23.38;;;7.22;;
35243;SDS011;37916;52.160;21.066;2024-01-25T04:14:44;22.10;;;6.70;;
35243;SDS011;37916;52.160;21.066;2024-01-25T04:24:45;22.10;;;5.63;;
35243;SDS011;37916;52.160;21.066;2024-01-25T04:34:48;22.55;;;6.63;;
35243;SDS011;37916;52.160;21.066;2024-01-25T04:44:49;20.27;;;6.18;;
35243;SDS011;37916;52.160;21.066;2024-01-25T04:54:50;20.95;;;5.43;;
35243;SDS011;37916;52.160;21.066;2024-01-25T05:04:51;14.05;;;3.75;;
35243;SDS011;37916;52.160;21.066;2024-01-25T05:14:52;11.27;;;1.48;;
35243;SDS011;37916;52.160;21.066;2024-01-25T05:25:02;9.38;;;2.00;;
35243;SDS011;37916;52.160;21.066;2024-01-25T05:35:04;9.38;;;1.60;;
35243;SDS011;37916;52.160;21.066;2024-01-25T05:45:06;19.83;;;2.22;;
35243;SDS011;37916;52.160;21.066;2024-01-25T05:55:08;12.10;;;2.22;;
35243;SDS011;37916;52.160;21.066;2024-01-25T06:05:10;10.80;;;1.67;;
35243;SDS011;37916;52.160;21.066;2024-01-25T06:15:10;12.80;;;1.52;;
35243;SDS011;37916;52.160;21.066;2024-01-25T06:25:11;8.60;;;1.60;;
35243;SDS011;37916;52.160;21.066;2024-01-25T06:35:13;8.77;;;2.08;;
35243;SDS011;37916;52.160;21.066;2024-01-25T06:45:15;8.43;;;1.83;;
35243;SDS011;37916;52.160;21.066;2024-01-25T06:55:17;12.57;;;2.38;;
35243;SDS011;37916;52.160;21.066;2024-01-25T07:05:18;11.60;;;1.83;;
35243;SDS011;37916;52.160;21.066;2024-01-25T07:15:20;9.07;;;2.10;;
35243;SDS011;37916;52.160;21.066;2024-01-25T07:25:23;11.63;;;1.83;;
35243;SDS011;37916;52.160;21.066;2024-01-25T07:35:27;12.18;;;2.38;;
35243;SDS011;37916;52.160;21.066;2024-01-25T08:07:04;11.75;;;2.08;;
35243;SDS011;37916;52.160;21.066;2024-01-25T08:17:23;12.80;;;1.73;;
35243;SDS011;37916;52.160;21.066;2024-01-25T08:27:29;10.57;;;1.70;;
35243;SDS011;37916;52.160;21.066;2024-01-25T08:47:37;5.32;;;1.42;;
35243;SDS011;37916;52.160;21.066;2024-01-25T08:57:41;4.13;;;1.30;;
35243;SDS011;37916;52.160;21.066;2024-01-25T09:07:42;4.53;;;1.03;;
35243;SDS011;37916;52.160;21.066;2024-01-25T09:17:43;6.13;;;1.50;;
35243;SDS011;37916;52.160;21.066;2024-01-25T09:27:51;7.22;;;1.58;;
35243;SDS011;37916;52.160;21.066;2024-01-25T09:37:52;2.97;;;1.20;;
35243;SDS011;37916;52.160;21.066;2024-01-25T09:47:54;2.97;;;1.10;;
35243;SDS011;37916;52.160;21.066;2024-01-25T09:57:55;2.90;;;1.13;;
35243;SDS011;37916;52.160;21.066;2024-01-25T10:07:57;4.28;;;1.38;;
35243;SDS011;37916;52.160;21.066;2024-01-25T10:18:01;2.50;;;1.10;;
35243;SDS011;37916;52.160;21.066;2024-01-25T10:28:03;3.53;;;1.20;;
35243;SDS011;37916;52.160;21.066;2024-01-25T10:38:04;3.13;;;1.30;;
35243;SDS011;37916;52.160;21.066;2024-01-25T10:48:06;1.95;;;0.80;;
35243;SDS011;37916;52.160;21.066;2024-01-25T10:58:18;3.25;;;0.70;;
35243;SDS011;37916;52.160;21.066;2024-01-25T11:08:19;4.45;;;0.75;;
35243;SDS011;37916;52.160;21.066;2024-01-25T11:18:24;3.17;;;1.48;;
35243;SDS011;37916;52.160;21.066;2024-01-25T11:28:26;3.53;;;1.42;;
35243;SDS011;37916;52.160;21.066;2024-01-25T11:38:30;1.73;;;1.17;;
35243;SDS011;37916;52.160;21.066;2024-01-25T11:58:32;2.40;;;1.08;;
35243;SDS011;37916;52.160;21.066;2024-01-25T12:08:34;2.95;;;1.10;;
35243;SDS011;37916;52.160;21.066;2024-01-25T12:18:36;2.90;;;1.00;;
35243;SDS011;37916;52.160;21.066;2024-01-25T12:28:37;6.72;;;1.33;;
35243;SDS011;37916;52.160;21.066;2024-01-25T12:38:38;6.13;;;1.58;;
35243;SDS011;37916;52.160;21.066;2024-01-25T12:48:39;2.95;;;0.80;;
35243;SDS011;37916;52.160;21.066;2024-01-25T12:58:40;1.45;;;0.50;;
35243;SDS011;37916;52.160;21.066;2024-01-25T13:08:52;3.03;;;0.80;;
35243;SDS011;37916;52.160;21.066;2024-01-25T13:18:59;2.53;;;1.10;;
35243;SDS011;37916;52.160;21.066;2024-01-25T13:29:00;2.75;;;1.30;;
35243;SDS011;37916;52.160;21.066;2024-01-25T13:39:01;3.00;;;1.30;;
35243;SDS011;37916;52.160;21.066;2024-01-25T13:49:03;4.13;;;0.98;;
35243;SDS011;37916;52.160;21.066;2024-01-25T13:59:04;2.08;;;1.25;;
35243;SDS011;37916;52.160;21.066;2024-01-25T14:09:05;3.50;;;1.33;;
35243;SDS011;37916;52.160;21.066;2024-01-25T14:19:06;2.35;;;1.30;;
35243;SDS011;37916;52.160;21.066;2024-01-25T14:29:07;4.65;;;2.45;;
35243;SDS011;37916;52.160;21.066;2024-01-25T14:39:09;3.90;;;2.08;;
35243;SDS011;37916;52.160;21.066;2024-01-25T14:49:10;5.43;;;1.85;;
35243;SDS011;37916;52.160;21.066;2024-01-25T14:59:11;3.75;;;1.30;;
35243;SDS011;37916;52.160;21.066;2024-01-25T15:09:12;3.50;;;1.95;;
35243;SDS011;37916;52.160;21.066;2024-01-25T15:19:13;1.45;;;0.60;;
35243;SDS011;37916;52.160;21.066;2024-01-25T15:29:14;2.42;;;1.20;;
35243;SDS011;37916;52.160;21.066;2024-01-25T15:39:15;3.42;;;1.50;;
35243;SDS011;37916;52.160;21.066;2024-01-25T15:49:29;5.85;;;1.48;;
35243;SDS011;37916;52.160;21.066;2024-01-25T15:59:46;4.63;;;1.23;;
35243;SDS011;37916;52.160;21.066;2024-01-25T16:09:57;2.95;;;1.30;;
35243;SDS011;37916;52.160;21.066;2024-01-25T16:20:19;5.60;;;1.65;;
35243;SDS011;37916;52.160;21.066;2024-01-25T16:30:21;3.95;;;1.50;;
35243;SDS011;37916;52.160;21.066;2024-01-25T16:40:24;1.73;;;1.10;;
35243;SDS011;37916;52.160;21.066;2024-01-25T16:50:25;3.40;;;1.33;;
35243;SDS011;37916;52.160;21.066;2024-01-25T17:00:30;2.83;;;1.58;;
35243;SDS011;37916;52.160;21.066;2024-01-25T17:10:37;2.25;;;1.50;;
35243;SDS011;37916;52.160;21.066;2024-01-25T17:20:38;2.28;;;0.88;;
35243;SDS011;37916;52.160;21.066;2024-01-25T17:30:39;2.17;;;0.82;;
35243;SDS011;37916;52.160;21.066;2024-01-25T17:40:41;1.55;;;0.70;;
35243;SDS011;37916;52.160;21.066;2024-01-25T17:50:42;1.05;;;0.60;;
35243;SDS011;37916;52.160;21.066;2024-01-25T18:00:43;2.58;;;0.63;;
35243;SDS011;37916;52.160;21.066;2024-01-25T18:10:45;1.42;;;0.70;;
35243;SDS011;37916;52.160;21.066;2024-01-25T18:20:46;1.73;;;0.60;;
35243;SDS011;37916;52.160;21.066;2024-01-25T18:30:47;2.60;;;0.90;;
35243;SDS011;37916;52.160;21.066;2024-01-25T18:40:49;2.33;;;1.10;;
35243;SDS011;37916;52.160;21.066;2024-01-25T18:50:50;3.00;;;1.38;;
35243;SDS011;37916;52.160;21.066;2024-01-25T19:00:55;4.68;;;1.40;;
35243;SDS011;37916;52.160;21.066;2024-01-25T19:10:56;2.67;;;1.23;;
35243;SDS011;37916;52.160;21.066;2024-01-25T19:20:57;5.07;;;1.58;;
35243;SDS011;37916;52.160;21.066;2024-01-25T19:30:58;2.85;;;1.20;;
35243;SDS011;37916;52.160;21.066;2024-01-25T19:40:59;4.60;;;1.58;;
35243;SDS011;37916;52.160;21.066;2024-01-25T19:51:00;3.17;;;1.70;;
35243;SDS011;37916;52.160;21.066;2024-01-25T20:01:01;3.97;;;1.80;;
35243;SDS011;37916;52.160;21.066;2024-01-25T20:11:03;4.22;;;1.60;;
35243;SDS011;37916;52.160;21.066;2024-01-25T20:21:04;7.60;;;2.20;;
35243;SDS011;37916;52.160;21.066;2024-01-25T20:31:08;4.47;;;2.10;;
35243;SDS011;37916;52.160;21.066;2024-01-25T20:41:10;5.13;;;2.08;;
35243;SDS011;37916;52.160;21.066;2024-01-25T20:51:10;3.75;;;1.95;;
35243;SDS011;37916;52.160;21.066;2024-01-25T21:01:21;3.97;;;1.80;;
35243;SDS011;37916;52.160;21.066;2024-01-25T21:11:22;3.35;;;2.15;;
35243;SDS011;37916;52.160;21.066;2024-01-25T21:21:23;2.30;;;1.50;;
35243;SDS011;37916;52.160;21.066;2024-01-25T21:31:24;2.85;;;1.75;;
35243;SDS011;37916;52.160;21.066;2024-01-25T21:41:26;4.03;;;1.95;;
35243;SDS011;37916;52.160;21.066;2024-01-25T21:51:27;3.25;;;1.80;;
35243;SDS011;37916;52.160;21.066;2024-01-25T22:01:28;4.78;;;1.75;;
35243;SDS011;37916;52.160;21.066;2024-01-25T22:11:29;2.13;;;1.40;;
35243;SDS011;37916;52.160;21.066;2024-01-25T22:21:30;3.03;;;1.60;;
35243;SDS011;37916;52.160;21.066;2024-01-25T22:31:31;3.05;;;1.65;;
35243;SDS011;37916;52.160;21.066;2024-01-25T22:41:32;2.97;;;1.50;;
35243;SDS011;37916;52.160;21.066;2024-01-25T22:51:33;2.42;;;1.30;;
35243;SDS011;37916;52.160;21.066;2024-01-25T23:01:34;2.22;;;1.08;;
35243;SDS011;37916;52.160;21.066;2024-01-25T23:11:35;2.80;;;1.48;;
35243;SDS011;37916;52.160;21.066;2024-01-25T23:21:36;3.35;;;1.30;;
35243;SDS011;37916;52.160;21.066;2024-01-25T23:31:37;2.30;;;1.45;;
35243;SDS011;37916;52.160;21.066;2024-01-25T23:41:38;3.60;;;1.30;;
35243;SDS011;37916;52.160;21.066;2024-01-25T23:51:40;3.53;;;1.00;;
